createdAt,value
2022-10-24T00:01:34.624Z,74.60
2022-10-24T00:04:03.660Z,74.67
2022-10-24T00:06:31.480Z,74.80
2022-10-24T00:08:59.682Z,75.13
2022-10-24T00:11:28.572Z,75.87
2022-10-24T00:13:57.680Z,76.11
2022-10-24T00:16:27.212Z,76.61
2022-10-24T00:18:55.456Z,76.86
2022-10-24T00:21:23.325Z,77.40
2022-10-24T00:23:51.193Z,78.17
2022-10-24T00:26:19.234Z,78.39
2022-10-24T00:28:47.078Z,79.04
2022-10-24T00:31:17.519Z,78.97
2022-10-24T00:33:46.369Z,78.93
2022-10-24T00:36:17.502Z,78.81
2022-10-24T00:38:46.011Z,78.67
2022-10-24T00:41:16.924Z,78.70
2022-10-24T00:43:45.582Z,78.66
2022-10-24T00:46:14.987Z,78.83
2022-10-24T00:48:48.676Z,78.94
2022-10-24T00:51:21.546Z,78.84
2022-10-24T00:53:52.327Z,78.77
2022-10-24T00:56:23.750Z,79.48
2022-10-24T00:58:53.870Z,80.42
2022-10-24T01:01:21.850Z,79.60
2022-10-24T01:03:49.826Z,79.16
2022-10-24T01:06:36.494Z,79.00
2022-10-24T01:09:27.261Z,79.61
2022-10-24T01:12:13.516Z,80.87
2022-10-24T01:14:55.885Z,79.37
2022-10-24T01:17:39.647Z,78.47
2022-10-24T01:20:22.913Z,77.88
2022-10-24T01:23:19.885Z,77.57
2022-10-24T01:26:04.076Z,78.10
2022-10-24T01:29:02.483Z,78.17
2022-10-24T01:31:39.045Z,78.15
2022-10-24T01:34:13.822Z,78.40
2022-10-24T01:36:51.456Z,78.51
2022-10-24T01:39:26.103Z,78.82
2022-10-24T01:41:57.539Z,78.95
2022-10-24T01:44:32.488Z,78.69
2022-10-24T01:47:17.938Z,78.86
2022-10-24T01:49:53.954Z,78.94
2022-10-24T01:52:23.147Z,79.03
2022-10-24T01:54:52.138Z,80.79
2022-10-24T01:57:20.120Z,79.67
2022-10-24T01:59:48.997Z,78.48
2022-10-24T02:02:24.169Z,78.62
2022-10-24T02:04:59.058Z,79.03
2022-10-24T02:07:30.478Z,79.17
2022-10-24T02:10:03.053Z,79.72
2022-10-24T02:12:32.211Z,80.03
2022-10-24T02:15:11.080Z,80.38
2022-10-24T02:17:39.223Z,80.78
2022-10-24T02:20:07.840Z,81.17
2022-10-24T02:22:47.914Z,81.21
2022-10-24T02:25:27.388Z,81.23
2022-10-24T02:28:03.933Z,81.14
2022-10-24T02:30:35.547Z,81.57
2022-10-24T02:33:03.902Z,81.42
2022-10-24T02:35:35.678Z,81.85
2022-10-24T02:38:44.490Z,83.21
2022-10-24T02:41:18.974Z,81.78
2022-10-24T02:43:47.073Z,81.08
2022-10-24T02:46:16.928Z,80.76
2022-10-24T02:48:49.914Z,80.80
2022-10-24T02:51:21.381Z,81.00
2022-10-24T02:53:50.764Z,80.85
2022-10-24T02:56:18.915Z,81.12
2022-10-24T02:58:46.760Z,81.17
2022-10-24T03:01:14.937Z,81.35
2022-10-24T03:03:42.992Z,81.38
2022-10-24T03:06:11.293Z,81.70
2022-10-24T03:08:39.463Z,82.00
2022-10-24T03:11:08.072Z,81.83
2022-10-24T03:13:35.980Z,81.94
2022-10-24T03:16:07.691Z,82.10
2022-10-24T03:18:38.426Z,82.30
2022-10-24T03:21:06.573Z,82.30
2022-10-24T03:23:34.603Z,82.36
2022-10-24T03:26:02.500Z,82.44
2022-10-24T03:28:30.509Z,82.48
2022-10-24T03:30:58.346Z,82.56
2022-10-24T03:33:26.228Z,82.88
2022-10-24T03:35:55.370Z,82.94
2022-10-24T03:38:23.877Z,83.01
2022-10-24T03:40:52.240Z,82.77
2022-10-24T03:43:20.272Z,82.74
2022-10-24T03:45:48.108Z,82.80
2022-10-24T03:48:16.156Z,82.63
2022-10-24T03:50:44.068Z,82.56
2022-10-24T03:53:11.939Z,82.33
2022-10-24T03:55:39.804Z,82.27
2022-10-24T03:58:08.297Z,82.36
2022-10-24T04:00:40.443Z,82.16
2022-10-24T04:03:10.170Z,82.04
2022-10-24T04:08:06.865Z,81.94
2022-10-24T04:10:35.035Z,82.27
2022-10-24T04:13:02.814Z,82.33
2022-10-24T04:15:31.251Z,82.39
2022-10-24T04:17:59.254Z,82.70
2022-10-24T04:20:27.262Z,82.99
2022-10-24T04:22:55.790Z,82.94
2022-10-24T04:25:24.034Z,83.35
2022-10-24T04:27:52.117Z,83.45
2022-10-24T04:30:20.057Z,83.61
2022-10-24T04:32:48.292Z,83.69
2022-10-24T04:35:16.568Z,83.67
2022-10-24T04:37:44.411Z,83.61
2022-10-24T04:40:12.698Z,83.75
2022-10-24T04:42:40.777Z,83.90
2022-10-24T04:45:09.343Z,84.51
2022-10-24T04:47:37.506Z,83.93
2022-10-24T04:50:05.950Z,83.68
2022-10-24T04:52:36.048Z,83.60
2022-10-24T04:55:04.357Z,84.12
2022-10-24T04:57:32.343Z,83.74
2022-10-24T05:00:00.110Z,82.87
2022-10-24T05:02:28.709Z,83.29
2022-10-24T05:04:56.789Z,83.13
2022-10-24T05:07:24.567Z,82.78
2022-10-24T05:09:52.498Z,82.70
2022-10-24T05:12:20.347Z,82.54
2022-10-24T05:14:48.218Z,82.56
2022-10-24T05:17:16.227Z,82.57
2022-10-24T05:19:44.160Z,82.73
2022-10-24T05:22:12.036Z,82.67
2022-10-24T05:24:40.192Z,82.79
2022-10-24T05:27:08.104Z,83.40
2022-10-24T05:29:37.116Z,83.42
2022-10-24T05:32:05.544Z,83.32
2022-10-24T05:34:33.831Z,83.64
2022-10-24T05:37:01.864Z,83.66
2022-10-24T05:39:29.950Z,83.81
2022-10-24T05:41:57.806Z,83.80
2022-10-24T05:44:25.583Z,83.75
2022-10-24T05:46:53.684Z,83.82
2022-10-24T05:49:22.826Z,84.04
2022-10-24T05:51:50.740Z,84.47
2022-10-24T05:54:18.888Z,84.09
2022-10-24T05:56:46.931Z,84.23
2022-10-24T05:59:14.710Z,84.52
2022-10-24T06:01:43.394Z,84.51
2022-10-24T06:04:13.697Z,84.65
2022-10-24T06:06:44.579Z,84.71
2022-10-24T06:09:13.226Z,84.57
2022-10-24T06:11:42.571Z,84.71
2022-10-24T06:14:10.540Z,85.06
2022-10-24T06:16:38.624Z,85.23
2022-10-24T06:19:06.436Z,85.27
2022-10-24T06:21:34.368Z,85.24
2022-10-24T06:24:02.657Z,85.03
2022-10-24T06:26:30.596Z,85.07
2022-10-24T06:28:58.639Z,85.15
2022-10-24T06:31:26.854Z,85.30
2022-10-24T06:33:55.752Z,85.56
2022-10-24T06:36:26.801Z,85.70
2022-10-24T06:38:57.796Z,85.76
2022-10-24T06:41:25.843Z,85.58
2022-10-24T06:43:54.039Z,86.03
2022-10-24T06:46:23.467Z,86.12
2022-10-24T06:48:55.547Z,85.96
2022-10-24T06:51:24.716Z,86.08
2022-10-24T06:53:53.096Z,86.07
2022-10-24T06:56:21.668Z,86.04
2022-10-24T06:58:49.796Z,86.20
2022-10-24T07:01:20.423Z,86.34
2022-10-24T07:03:50.044Z,86.39
2022-10-24T07:08:55.350Z,86.25
2022-10-24T07:11:23.932Z,86.17
2022-10-24T07:13:53.358Z,86.04
2022-10-24T07:16:24.371Z,85.82
2022-10-24T07:18:52.500Z,85.76
2022-10-24T07:21:23.096Z,85.82
2022-10-24T07:23:52.364Z,86.02
2022-10-24T07:26:21.855Z,86.17
2022-10-24T07:28:53.703Z,86.28
2022-10-24T07:31:24.523Z,86.47
2022-10-24T07:33:53.483Z,86.69
2022-10-24T07:36:41.459Z,86.65
2022-10-24T07:39:13.379Z,86.85
2022-10-24T07:41:42.636Z,87.08
2022-10-24T07:44:11.140Z,87.17
2022-10-24T07:46:42.422Z,87.29
2022-10-24T07:49:10.627Z,87.29
2022-10-24T07:51:38.523Z,87.41
2022-10-24T07:54:06.798Z,87.50
2022-10-24T07:56:34.784Z,87.39
2022-10-24T07:59:09.072Z,87.28
2022-10-24T08:01:42.144Z,87.15
2022-10-24T08:04:11.078Z,87.04
2022-10-24T08:06:40.777Z,87.04
2022-10-24T08:09:09.409Z,87.01
2022-10-24T08:11:37.285Z,86.86
2022-10-24T08:14:05.129Z,86.84
2022-10-24T08:16:33.476Z,86.88
2022-10-24T08:19:01.322Z,86.77
2022-10-24T08:21:31.378Z,86.88
2022-10-24T08:23:59.707Z,86.83
2022-10-24T08:26:27.613Z,86.77
2022-10-24T08:28:56.029Z,86.84
2022-10-24T08:31:26.663Z,86.98
2022-10-24T08:33:55.654Z,86.91
2022-10-24T08:36:30.226Z,86.91
2022-10-24T08:38:59.617Z,86.76
2022-10-24T08:41:34.636Z,86.92
2022-10-24T08:44:15.436Z,87.13
2022-10-24T08:47:19.679Z,87.11
2022-10-24T08:50:25.794Z,86.92
2022-10-24T08:53:02.481Z,87.01
2022-10-24T08:55:53.644Z,87.40
2022-10-24T08:58:36.595Z,87.73
2022-10-24T09:01:36.097Z,87.72
2022-10-24T09:04:09.483Z,87.91
2022-10-24T09:06:38.363Z,87.94
2022-10-24T09:09:24.483Z,87.83
2022-10-24T09:12:06.849Z,87.10
2022-10-24T09:14:38.511Z,86.81
2022-10-24T09:17:12.299Z,86.44
2022-10-24T09:19:40.671Z,86.18
2022-10-24T09:22:12.349Z,85.75
2022-10-24T09:24:47.565Z,84.39
2022-10-24T09:27:25.702Z,84.01
2022-10-24T09:29:54.074Z,84.37
2022-10-24T09:32:32.585Z,83.50
2022-10-24T09:35:18.269Z,82.63
2022-10-24T09:37:57.811Z,82.99
2022-10-24T09:40:30.088Z,83.63
2022-10-24T09:43:17.235Z,83.82
2022-10-24T09:46:06.674Z,82.86
2022-10-24T09:48:50.124Z,82.68
2022-10-24T09:51:24.318Z,82.81
2022-10-24T09:54:02.674Z,82.43
2022-10-24T09:56:55.882Z,82.69
2022-10-24T09:59:30.076Z,82.45
2022-10-24T10:02:19.961Z,82.32
2022-10-24T10:05:03.338Z,82.16
2022-10-24T10:07:34.486Z,82.44
2022-10-24T10:10:25.543Z,82.41
2022-10-24T10:13:01.998Z,82.09
2022-10-24T10:15:48.912Z,82.20
2022-10-24T10:18:28.828Z,82.31
2022-10-24T10:21:01.415Z,81.87
2022-10-24T10:23:49.837Z,81.58
2022-10-24T10:26:18.868Z,81.78
2022-10-24T10:28:57.659Z,81.99
2022-10-24T10:31:49.946Z,81.59
2022-10-24T10:34:24.181Z,82.47
2022-10-24T10:37:23.534Z,82.12
2022-10-24T10:40:03.537Z,82.06
2022-10-24T10:42:42.893Z,81.71
2022-10-24T10:45:28.748Z,81.82
2022-10-24T10:48:15.789Z,81.95
2022-10-24T10:51:08.354Z,81.49
2022-10-24T10:53:39.838Z,81.31
2022-10-24T10:56:23.099Z,81.05
2022-10-24T10:59:16.986Z,80.99
2022-10-24T11:01:49.547Z,80.82
2022-10-24T11:04:42.041Z,80.71
2022-10-24T11:07:16.192Z,80.33
2022-10-24T11:10:13.741Z,80.56
2022-10-24T11:12:44.519Z,80.39
2022-10-24T11:15:31.610Z,80.40
2022-10-24T11:18:31.588Z,80.14
2022-10-24T11:21:12.225Z,80.22
2022-10-24T11:24:00.773Z,79.85
2022-10-24T11:27:09.420Z,79.71
2022-10-24T11:30:01.225Z,79.74
2022-10-24T11:32:43.208Z,80.14
2022-10-24T11:35:15.079Z,79.95
2022-10-24T11:37:52.362Z,80.20
2022-10-24T11:43:15.903Z,80.42
2022-10-24T11:46:15.952Z,79.85
2022-10-24T11:48:53.485Z,79.61
2022-10-24T11:52:04.045Z,79.68
2022-10-24T11:54:57.655Z,79.97
2022-10-24T11:57:29.592Z,80.32
2022-10-24T11:59:59.455Z,79.13
2022-10-24T12:02:55.000Z,77.91
2022-10-24T12:05:27.737Z,77.58
2022-10-24T12:08:04.943Z,76.82
2022-10-24T12:11:01.926Z,76.40
2022-10-24T12:14:07.133Z,77.36
2022-10-24T12:17:08.529Z,77.18
2022-10-24T12:19:41.636Z,76.71
2022-10-24T12:22:18.376Z,75.89
2022-10-24T12:24:46.495Z,76.61
2022-10-24T12:27:31.770Z,75.30
2022-10-24T12:30:16.577Z,75.25
2022-10-24T12:32:49.592Z,76.21
2022-10-24T12:35:31.256Z,75.20
2022-10-24T12:38:01.209Z,74.90
2022-10-24T12:41:06.847Z,74.79
2022-10-24T12:43:45.535Z,74.87
2022-10-24T12:46:39.678Z,74.89
2022-10-24T12:49:10.610Z,75.21
2022-10-24T12:51:40.991Z,75.13
2022-10-24T12:54:12.250Z,75.36
2022-10-24T12:56:49.390Z,74.69
2022-10-24T12:59:19.632Z,74.09
2022-10-24T13:01:50.104Z,74.31
2022-10-24T13:04:52.466Z,75.41
2022-10-24T13:07:48.461Z,75.57
2022-10-24T13:10:24.573Z,75.70
2022-10-24T13:13:40.578Z,74.98
2022-10-24T13:16:26.937Z,75.04
2022-10-24T13:19:07.903Z,73.84
2022-10-24T13:22:29.524Z,74.04
2022-10-24T13:24:57.666Z,74.53
2022-10-24T13:27:29.583Z,73.35
2022-10-24T13:29:57.782Z,73.14
2022-10-24T13:32:32.418Z,72.86
2022-10-24T13:35:02.952Z,72.82
2022-10-24T13:37:45.057Z,72.50
2022-10-24T13:40:22.760Z,72.84
2022-10-24T13:43:02.898Z,72.88
2022-10-24T13:45:52.567Z,72.96
2022-10-24T13:48:23.506Z,72.88
2022-10-24T13:51:18.070Z,72.91
2022-10-24T13:54:02.943Z,72.90
2022-10-24T13:56:37.295Z,72.90
2022-10-24T13:59:07.546Z,74.43
2022-10-24T14:04:09.861Z,72.62
2022-10-24T14:06:38.121Z,69.01
2022-10-24T14:09:10.507Z,64.82
2022-10-24T14:11:45.998Z,62.55
2022-10-24T14:14:36.060Z,62.14
2022-10-24T14:17:26.529Z,62.11
2022-10-24T14:20:23.067Z,61.83
2022-10-24T14:22:51.516Z,61.68
2022-10-24T14:25:54.680Z,60.31
2022-10-24T14:28:27.396Z,60.90
2022-10-24T14:30:59.344Z,60.28
2022-10-24T14:33:30.776Z,59.12
2022-10-24T14:36:06.651Z,59.64
2022-10-24T14:38:36.106Z,60.72
2022-10-24T14:41:09.645Z,63.83
2022-10-24T14:43:42.723Z,64.72
2022-10-24T14:46:14.090Z,62.61
2022-10-24T14:48:45.037Z,61.70
2022-10-24T14:51:37.678Z,61.59
2022-10-24T14:54:18.676Z,62.01
2022-10-24T14:56:48.439Z,61.14
2022-10-24T14:59:30.899Z,60.73
2022-10-24T15:02:05.018Z,58.05
2022-10-24T15:04:43.384Z,58.44
2022-10-24T15:07:37.827Z,59.97
2022-10-24T15:10:13.105Z,61.23
2022-10-24T15:12:52.182Z,65.22
2022-10-24T15:15:23.510Z,65.70
2022-10-24T15:17:56.608Z,64.07
2022-10-24T15:20:30.474Z,62.97
2022-10-24T15:22:59.865Z,62.86
2022-10-24T15:25:42.106Z,62.03
2022-10-24T15:28:43.272Z,61.41
2022-10-24T15:31:16.974Z,61.47
2022-10-24T15:33:45.830Z,63.12
2022-10-24T15:36:33.645Z,62.52
2022-10-24T15:39:12.362Z,63.26
2022-10-24T15:41:41.241Z,62.63
2022-10-24T15:44:21.761Z,63.67
2022-10-24T15:46:50.397Z,63.79
2022-10-24T15:49:19.690Z,64.53
2022-10-24T15:51:50.509Z,64.75
2022-10-24T15:54:22.575Z,65.31
2022-10-24T15:56:50.972Z,65.97
2022-10-24T15:59:20.274Z,67.00
2022-10-24T16:01:55.013Z,68.22
2022-10-24T16:04:24.332Z,69.94
2022-10-24T16:06:52.734Z,66.51
2022-10-24T16:09:23.819Z,64.90
2022-10-24T16:11:51.660Z,64.61
2022-10-24T16:14:21.715Z,65.96
2022-10-24T16:16:49.725Z,64.10
2022-10-24T16:19:17.780Z,62.77
2022-10-24T16:21:45.770Z,63.22
2022-10-24T16:24:14.500Z,64.11
2022-10-24T16:26:42.359Z,64.07
2022-10-24T16:29:11.239Z,64.63
2022-10-24T16:31:39.369Z,65.47
2022-10-24T16:34:07.666Z,66.07
2022-10-24T16:36:35.834Z,67.08
2022-10-24T16:39:04.392Z,67.26
2022-10-24T16:41:32.640Z,67.66
2022-10-24T16:44:01.180Z,68.33
2022-10-24T16:46:29.146Z,68.76
2022-10-24T16:48:57.595Z,69.32
2022-10-24T16:51:32.250Z,69.74
2022-10-24T16:54:02.162Z,70.20
2022-10-24T16:56:30.673Z,70.83
2022-10-24T16:58:58.510Z,71.43
2022-10-24T17:01:28.008Z,71.76
2022-10-24T17:03:58.971Z,72.23
2022-10-24T17:06:27.486Z,72.47
2022-10-24T17:08:55.261Z,72.54
2022-10-24T17:11:44.538Z,72.75
2022-10-24T17:14:14.334Z,72.99
2022-10-24T17:16:43.991Z,73.24
2022-10-24T17:19:16.726Z,73.32
2022-10-24T17:21:50.878Z,73.70
2022-10-24T17:24:21.852Z,73.97
2022-10-24T17:26:50.611Z,74.18
2022-10-24T17:29:30.931Z,74.51
2022-10-24T17:31:59.986Z,74.84
2022-10-24T17:34:28.665Z,75.24
2022-10-24T17:37:03.493Z,74.06
2022-10-24T17:39:40.381Z,72.80
2022-10-24T17:42:11.379Z,73.17
2022-10-24T17:44:39.750Z,73.93
2022-10-24T17:47:07.838Z,75.16
2022-10-24T17:49:35.806Z,74.83
2022-10-24T17:52:04.216Z,74.62
2022-10-24T17:54:32.279Z,76.89
2022-10-24T17:57:02.532Z,77.17
2022-10-24T17:59:33.525Z,74.82
2022-10-24T18:02:02.231Z,74.51
2022-10-24T18:07:04.321Z,71.40
2022-10-24T18:09:32.356Z,69.59
2022-10-24T18:12:01.188Z,67.34
2022-10-24T18:14:29.027Z,66.28
2022-10-24T18:16:57.358Z,64.43
2022-10-24T18:19:28.365Z,64.30
2022-10-24T18:21:56.271Z,63.29
2022-10-24T18:24:24.499Z,62.56
2022-10-24T18:26:52.474Z,62.20
2022-10-24T18:29:20.281Z,61.83
2022-10-24T18:31:48.438Z,60.40
2022-10-24T18:34:16.309Z,59.98
2022-10-24T18:36:44.167Z,58.33
2022-10-24T18:39:13.521Z,59.10
2022-10-24T18:41:46.835Z,61.01
2022-10-24T18:44:29.327Z,65.04
2022-10-24T18:47:03.904Z,65.83
2022-10-24T18:49:34.074Z,64.78
2022-10-24T18:52:11.075Z,64.58
2022-10-24T18:54:51.402Z,64.34
2022-10-24T18:57:27.993Z,63.79
2022-10-24T18:59:58.622Z,63.87
2022-10-24T19:02:48.310Z,64.00
2022-10-24T19:05:31.781Z,64.47
2022-10-24T19:08:00.118Z,64.97
2022-10-24T19:10:28.492Z,66.17
2022-10-24T19:12:57.572Z,66.66
2022-10-24T19:15:25.783Z,68.58
2022-10-24T19:17:56.958Z,69.71
2022-10-24T19:20:28.831Z,68.70
2022-10-24T19:22:58.610Z,66.90
2022-10-24T19:25:26.616Z,66.87
2022-10-24T19:27:54.615Z,66.64
2022-10-24T19:30:22.573Z,67.07
2022-10-24T19:32:50.664Z,67.13
2022-10-24T19:35:18.975Z,68.01
2022-10-24T19:37:47.187Z,68.64
2022-10-24T19:40:15.417Z,68.79
2022-10-24T19:42:43.338Z,69.59
2022-10-24T19:45:11.347Z,70.44
2022-10-24T19:47:39.265Z,72.15
2022-10-24T19:50:07.946Z,72.93
2022-10-24T19:52:36.295Z,73.03
2022-10-24T19:55:05.023Z,73.97
2022-10-24T19:57:33.089Z,74.78
2022-10-24T20:00:01.418Z,76.18
2022-10-24T20:02:40.157Z,77.06
2022-10-24T20:05:08.803Z,77.73
2022-10-24T20:07:36.588Z,78.49
2022-10-24T20:10:05.470Z,79.92
2022-10-24T20:12:33.503Z,79.91
2022-10-24T20:15:01.947Z,80.45
2022-10-24T20:17:29.906Z,80.69
2022-10-24T20:19:57.912Z,81.05
2022-10-24T20:22:25.727Z,81.32
2022-10-24T20:24:53.748Z,81.74
2022-10-24T20:27:24.476Z,81.98
2022-10-24T20:29:52.851Z,82.30
2022-10-24T20:32:21.426Z,82.27
2022-10-24T20:34:49.556Z,82.82
2022-10-24T20:37:17.575Z,82.66
2022-10-24T20:39:45.546Z,82.24
2022-10-24T20:42:13.620Z,82.11
2022-10-24T20:44:42.006Z,82.59
2022-10-24T20:47:10.512Z,82.57
2022-10-24T20:49:38.627Z,82.01
2022-10-24T20:52:06.593Z,81.94
2022-10-24T20:54:34.660Z,81.62
2022-10-24T20:57:02.807Z,81.46
2022-10-24T20:59:30.643Z,81.67
2022-10-24T21:01:58.718Z,81.75
2022-10-24T21:04:26.786Z,81.86
2022-10-24T21:06:54.709Z,81.55
2022-10-24T21:09:22.767Z,81.45
2022-10-24T21:11:50.780Z,81.62
2022-10-24T21:14:20.804Z,81.58
2022-10-24T21:16:48.760Z,81.73
2022-10-24T21:19:16.747Z,81.79
2022-10-24T21:21:44.612Z,81.89
2022-10-24T21:24:18.182Z,81.81
2022-10-24T21:26:46.415Z,81.98
2022-10-24T21:29:32.089Z,81.92
2022-10-24T21:32:00.862Z,81.93
2022-10-24T21:34:31.638Z,81.96
2022-10-24T21:37:03.786Z,81.97
2022-10-24T21:39:33.847Z,82.11
2022-10-24T21:42:02.409Z,82.27
2022-10-24T21:44:30.663Z,82.24
2022-10-24T21:46:58.603Z,82.19
2022-10-24T21:49:26.577Z,82.13
2022-10-24T21:51:54.737Z,82.18
2022-10-24T21:54:25.074Z,82.06
2022-10-24T21:56:53.136Z,81.97
2022-10-24T21:59:22.339Z,81.86
2022-10-24T22:01:51.940Z,81.79
2022-10-24T22:04:20.812Z,81.68
2022-10-24T22:06:49.022Z,81.57
2022-10-24T22:09:23.721Z,81.55
2022-10-24T22:11:54.883Z,81.54
2022-10-24T22:14:22.874Z,81.48
2022-10-24T22:16:50.784Z,81.44
2022-10-24T22:19:18.960Z,81.49
2022-10-24T22:21:49.839Z,81.48
2022-10-24T22:24:20.744Z,81.40
2022-10-24T22:26:49.916Z,81.37
2022-10-24T22:29:22.979Z,81.41
2022-10-24T22:31:52.835Z,81.39
2022-10-24T22:34:26.175Z,81.33
2022-10-24T22:37:16.075Z,81.32
2022-10-24T22:39:44.248Z,81.25
2022-10-24T22:42:14.919Z,81.27
2022-10-24T22:44:46.042Z,81.27
2022-10-24T22:47:28.074Z,81.29
2022-10-24T22:50:21.986Z,81.33
2022-10-24T22:52:50.505Z,81.36
2022-10-24T22:55:45.740Z,81.42
2022-10-24T22:58:14.097Z,81.42
2022-10-24T23:00:42.317Z,81.49
2022-10-24T23:03:36.470Z,81.55
2022-10-24T23:06:20.122Z,81.40
2022-10-24T23:08:48.150Z,81.45
2022-10-24T23:11:16.497Z,81.53
2022-10-24T23:13:44.681Z,81.67
2022-10-24T23:16:23.715Z,81.74
2022-10-24T23:18:52.017Z,81.82
2022-10-24T23:21:29.897Z,82.02
2022-10-24T23:23:58.160Z,82.09
2022-10-24T23:26:40.025Z,82.17
2022-10-24T23:29:35.351Z,82.25
2022-10-24T23:32:04.124Z,82.31
2022-10-24T23:34:32.295Z,82.49
2022-10-24T23:37:04.368Z,82.56
2022-10-24T23:39:35.275Z,82.63
2022-10-24T23:42:05.055Z,82.82
2022-10-24T23:44:33.351Z,83.07
2022-10-24T23:47:19.830Z,83.22
2022-10-24T23:49:57.744Z,83.57
2022-10-24T23:52:45.953Z,83.37
2022-10-24T23:55:16.970Z,83.30
2022-10-24T23:57:44.942Z,83.51
